Etretat — FIDP — position and weather

sailwx.info

Track history (hours):
 
Tides and Currents Weather Stations Pressure Air Temp Water Temp Dewpoint Dewpoint Depression Visibility Wind Speed Wind Dir Waves Ship Positions

Etretat

Last reported at 2014-Dec-22 12:30 UTC. Time now 2014-Dec-22 13:30 UTC.
Position N 50°25' W 001°28'.

Length 187 m; draft 6.3 m.

Type: Ship. MMSI: 228022900.

Date/timePositionNaut miles runAvg speedWind from/ knotsBaromVisibWave heightAir tempDewpointWater temp
2014-Dec-22 12:30N 50°25' W 001°28'16620.9
2014-Dec-22 04:34N 48°39' W 004°45'1717.2
2014-Dec-22 03:33N 48°22' W 004°49'1918.6
2014-Dec-22 02:34N 48°03' W 004°46'7521.6
2014-Dec-21 23:04N 46°49' W 004°28'73 2.7
2014-Dec-20 20:30N 47°57' W 005°08'2221.5
2014-Dec-20 19:29N 48°19' W 005°07'1819.5
2014-Dec-20 18:32N 48°34' W 004°52'14620.9
2014-Dec-20 11:33N 50°12' W 002°06'2722.4
2014-Dec-20 10:22N 50°25' W 001°30'1721.3
2014-Dec-20 09:33N 50°35' W 001°08'1313.5
2014-Dec-20 08:34N 50°49' W 001°06'0 0.3
2014-Dec-20 07:33N 50°49' W 001°06'0 0.0
2014-Dec-20 06:33N 50°49' W 001°06'0 0.0
2014-Dec-20 05:33N 50°49' W 001°06'10 9.5
2014-Dec-20 04:33N 50°41' W 000°57'1312.9
2014-Dec-20 03:33N 50°29' W 000°48'5012.4
2014-Dec-19 23:34N 49°41' W 000°27'1111.1
2014-Dec-19 22:33N 49°33' W 000°17'1111.4
2014-Dec-19 21:34N 49°30' E 000°00'4 4.3
2014-Dec-19 20:33N 49°29' E 000°07'0 0.0
2014-Dec-19 19:33N 49°29' E 000°07'0 0.0
2014-Dec-19 18:33N 49°29' E 000°07'0 0.0
2014-Dec-19 17:33N 49°29' E 000°07'9 8.7
2014-Dec-19 16:33N 49°35' W 000°03'6321.0
2014-Dec-19 13:33N 50°31' W 000°49'1918.6
2014-Dec-19 12:34N 50°46' W 001°05'2 2.5
2014-Dec-19 11:33N 50°49' W 001°06'0 0.0
2014-Dec-19 10:33N 50°49' W 001°06'0 0.0
2014-Dec-19 09:33N 50°49' W 001°06'0 0.0
2014-Dec-19 08:34N 50°49' W 001°06'0 0.3
2014-Dec-19 07:34N 50°49' W 001°06'1212.3
2014-Dec-19 06:34N 50°37' W 001°01'7111.1
2014-Dec-19 00:07N 49°28' W 000°33'6 9.9
2014-Dec-18 23:33N 49°27' W 000°25'1010.1
2014-Dec-18 22:33N 49°30' W 000°10'1110.8
2014-Dec-18 21:33N 49°29' E 000°07'0 0.0
2014-Dec-18 20:33N 49°29' E 000°07'0 0.0
2014-Dec-18 19:33N 49°29' E 000°07'0 0.0
2014-Dec-18 18:33N 49°29' E 000°07'0 0.0
2014-Dec-18 17:33N 49°29' E 000°07'8 8.1
2014-Dec-18 16:33N 49°35' W 000°02'6319.9
2014-Dec-18 13:24N 50°30' W 000°48'1618.6
2014-Dec-18 12:33N 50°43' W 001°01'6 6.1
2014-Dec-18 11:33N 50°49' W 001°06'0 0.0
2014-Dec-18 10:33N 50°49' W 001°06'0 0.0
2014-Dec-18 09:33N 50°49' W 001°06'0 0.0
2014-Dec-18 08:33N 50°49' W 001°06'1 0.7
2014-Dec-18 07:34N 50°48' W 001°07'1414.3
2014-Dec-18 06:34N 50°37' W 000°53'1413.9
2014-Dec-18 05:32N 50°24' W 000°43'4113.5
2014-Dec-18 02:32N 49°46' W 000°21'1010.4
2014-Dec-18 01:34N 49°37' W 000°16'1111.1
2014-Dec-18 00:34N 49°26' W 000°10'1 1.2
2014-Dec-17 23:33N 49°27' W 000°12'1 0.9
2014-Dec-17 22:33N 49°26' W 000°11'1211.7
2014-Dec-17 21:34N 49°29' E 000°07'0 0.0
2014-Dec-17 20:34N 49°29' E 000°07'0 0.0
2014-Dec-17 19:34N 49°29' E 000°07'0 0.0
2014-Dec-17 18:34N 49°29' E 000°07'0 0.0
2014-Dec-17 17:33N 49°29' E 000°07'9 9.1
2014-Dec-17 16:33N 49°35' W 000°03'6219.9
2014-Dec-17 13:28N 50°30' W 000°48'1718.7
2014-Dec-17 12:33N 50°44' W 001°03'5 5.1
2014-Dec-17 11:33N 50°49' W 001°06'0 0.0
2014-Dec-17 10:33N 50°49' W 001°06'0 0.0
2014-Dec-17 09:33N 50°49' W 001°06'0 0.0
2014-Dec-17 08:33N 50°49' W 001°06'1 0.6
2014-Dec-17 07:33N 50°49' W 001°07'1413.8
2014-Dec-17 06:33N 50°37' W 000°54'7011.5
2014-Dec-17 00:28N 49°37' W 000°01'1 1.5
2014-Dec-16 23:33N 49°36' W 000°03'5 5.1
2014-Dec-16 22:31N 49°31' E 000°00'5 4.8
2014-Dec-16 21:33N 49°29' E 000°07'0 0.0
2014-Dec-16 20:33N 49°29' E 000°07'0 0.2
2014-Dec-16 19:33N 49°29' E 000°06'0 0.0
2014-Dec-16 18:33N 49°29' E 000°06'0 0.2
2014-Dec-16 17:32N 49°29' E 000°07'0 0.4
2014-Dec-16 16:33N 49°29' E 000°06'7919.8
2014-Dec-16 12:34N 50°38' W 000°55'1312.8
2014-Dec-16 11:33N 50°49' W 001°06'0 0.0
2014-Dec-16 10:33N 50°49' W 001°06'0 0.0
2014-Dec-16 09:33N 50°49' W 001°06'1 1.4
2014-Dec-16 08:33N 50°47' W 001°07'8 8.3
2014-Dec-16 07:34N 50°41' W 000°58'1312.9
2014-Dec-16 06:34N 50°30' W 000°48'6612.4
2014-Dec-16 01:15N 49°32' E 000°00'5 7.2
2014-Dec-16 00:31N 49°29' E 000°07'0 0.4
2014-Dec-15 23:34N 49°29' E 000°06'1918.3
2014-Dec-15 22:33N 49°44' W 000°10'5121.0
2014-Dec-15 20:07N 50°28' W 000°50'1120.5
2014-Dec-15 19:34N 50°39' W 000°56'1211.5
2014-Dec-15 18:33N 50°49' W 001°06'0 0.3
2014-Dec-15 17:33N 50°49' W 001°06'0 0.0
2014-Dec-15 16:33N 50°49' W 001°06'1 1.4
2014-Dec-15 15:33N 50°47' W 001°07'1414.1
2014-Dec-15 14:33N 50°34' W 001°13'17521.9
2014-Dec-15 06:33N 48°41' W 004°40'2020.3
2014-Dec-15 05:33N 48°27' W 005°01'1818.6
2014-Dec-15 04:33N 48°09' W 005°09'2019.8
2014-Dec-15 03:33N 47°49' W 005°06'16 0.5
2014-Dec-13 21:33N 47°54' W 004°42'1818.1
2014-Dec-13 20:33N 48°12' W 004°46'1616.2
2014-Dec-13 19:33N 48°28' W 004°51'2018.2
2014-Dec-13 18:28N 48°45' W 004°37'15320.7
2014-Dec-13 11:04N 50°22' W 001°34'1019.6
2014-Dec-13 10:33N 50°28' W 001°22'1918.7
2014-Dec-13 09:33N 50°40' W 000°59'10 9.6
2014-Dec-13 08:33N 50°49' W 001°06'0 0.0
2014-Dec-13 07:33N 50°49' W 001°06'0 0.0
2014-Dec-13 06:33N 50°49' W 001°06'0 0.0
2014-Dec-13 05:33N 50°49' W 001°06'6 6.0
2014-Dec-13 04:34N 50°43' W 001°01'1313.3
2014-Dec-13 03:33N 50°32' W 000°49'5911.7
2014-Dec-12 22:33N 49°40' W 000°07'1111.4
2014-Dec-12 21:34N 49°30' E 000°01'4 3.8
2014-Dec-12 20:34N 49°29' E 000°07'0 0.0
2014-Dec-12 19:34N 49°29' E 000°07'0 0.0
2014-Dec-12 18:34N 49°29' E 000°07'0 0.0
2014-Dec-12 17:34N 49°29' E 000°07'2 2.1
2014-Dec-12 16:33N 49°29' E 000°04'1717.0
2014-Dec-12 15:34N 49°33' W 000°22'1312.7
2014-Dec-12 14:33N 49°28' W 000°40'2 1.8
2014-Dec-12 13:33N 49°28' W 000°42'3 2.6
2014-Dec-12 12:33N 49°29' W 000°46'  
Track history (hours):
 
Tides and Currents Weather Stations Pressure Air Temp Water Temp Dewpoint Dewpoint Depression Visibility Wind Speed Wind Dir Waves Ship Positions

Etretat

Last reported at 2014-Dec-22 12:30 UTC. Time now 2014-Dec-22 13:30 UTC.
Position N 50°25' W 001°28'.

Length 187 m; draft 6.3 m.

Type: Ship. MMSI: 228022900.

Date/timePositionNaut miles runAvg speedWind from/ knotsBaromVisibWave heightAir tempDewpointWater temp
2014-Dec-22 12:30N 50°25' W 001°28'16620.9
2014-Dec-22 04:34N 48°39' W 004°45'1717.2
2014-Dec-22 03:33N 48°22' W 004°49'1918.6
2014-Dec-22 02:34N 48°03' W 004°46'7521.6
2014-Dec-21 23:04N 46°49' W 004°28'73 2.7
2014-Dec-20 20:30N 47°57' W 005°08'2221.5
2014-Dec-20 19:29N 48°19' W 005°07'1819.5
2014-Dec-20 18:32N 48°34' W 004°52'14620.9
2014-Dec-20 11:33N 50°12' W 002°06'2722.4
2014-Dec-20 10:22N 50°25' W 001°30'1721.3
2014-Dec-20 09:33N 50°35' W 001°08'1313.5
2014-Dec-20 08:34N 50°49' W 001°06'0 0.3
2014-Dec-20 07:33N 50°49' W 001°06'0 0.0
2014-Dec-20 06:33N 50°49' W 001°06'0 0.0
2014-Dec-20 05:33N 50°49' W 001°06'10 9.5
2014-Dec-20 04:33N 50°41' W 000°57'1312.9
2014-Dec-20 03:33N 50°29' W 000°48'5012.4
2014-Dec-19 23:34N 49°41' W 000°27'1111.1
2014-Dec-19 22:33N 49°33' W 000°17'1111.4
2014-Dec-19 21:34N 49°30' E 000°00'4 4.3
2014-Dec-19 20:33N 49°29' E 000°07'0 0.0
2014-Dec-19 19:33N 49°29' E 000°07'0 0.0
2014-Dec-19 18:33N 49°29' E 000°07'0 0.0
2014-Dec-19 17:33N 49°29' E 000°07'9 8.7
2014-Dec-19 16:33N 49°35' W 000°03'6321.0
2014-Dec-19 13:33N 50°31' W 000°49'1918.6
2014-Dec-19 12:34N 50°46' W 001°05'2 2.5
2014-Dec-19 11:33N 50°49' W 001°06'0 0.0
2014-Dec-19 10:33N 50°49' W 001°06'0 0.0
2014-Dec-19 09:33N 50°49' W 001°06'0 0.0
2014-Dec-19 08:34N 50°49' W 001°06'0 0.3
2014-Dec-19 07:34N 50°49' W 001°06'1212.3
2014-Dec-19 06:34N 50°37' W 001°01'7111.1
2014-Dec-19 00:07N 49°28' W 000°33'6 9.9
2014-Dec-18 23:33N 49°27' W 000°25'1010.1
2014-Dec-18 22:33N 49°30' W 000°10'1110.8
2014-Dec-18 21:33N 49°29' E 000°07'0 0.0
2014-Dec-18 20:33N 49°29' E 000°07'0 0.0
2014-Dec-18 19:33N 49°29' E 000°07'0 0.0
2014-Dec-18 18:33N 49°29' E 000°07'0 0.0
2014-Dec-18 17:33N 49°29' E 000°07'8 8.1
2014-Dec-18 16:33N 49°35' W 000°02'6319.9
2014-Dec-18 13:24N 50°30' W 000°48'1618.6
2014-Dec-18 12:33N 50°43' W 001°01'6 6.1
2014-Dec-18 11:33N 50°49' W 001°06'0 0.0
2014-Dec-18 10:33N 50°49' W 001°06'0 0.0
2014-Dec-18 09:33N 50°49' W 001°06'0 0.0
2014-Dec-18 08:33N 50°49' W 001°06'1 0.7
2014-Dec-18 07:34N 50°48' W 001°07'1414.3
2014-Dec-18 06:34N 50°37' W 000°53'1413.9
2014-Dec-18 05:32N 50°24' W 000°43'4113.5
2014-Dec-18 02:32N 49°46' W 000°21'1010.4
2014-Dec-18 01:34N 49°37' W 000°16'1111.1
2014-Dec-18 00:34N 49°26' W 000°10'1 1.2
2014-Dec-17 23:33N 49°27' W 000°12'1 0.9
2014-Dec-17 22:33N 49°26' W 000°11'1211.7
2014-Dec-17 21:34N 49°29' E 000°07'0 0.0
2014-Dec-17 20:34N 49°29' E 000°07'0 0.0
2014-Dec-17 19:34N 49°29' E 000°07'0 0.0
2014-Dec-17 18:34N 49°29' E 000°07'0 0.0
2014-Dec-17 17:33N 49°29' E 000°07'9 9.1
2014-Dec-17 16:33N 49°35' W 000°03'6219.9
2014-Dec-17 13:28N 50°30' W 000°48'1718.7
2014-Dec-17 12:33N 50°44' W 001°03'5 5.1
2014-Dec-17 11:33N 50°49' W 001°06'0 0.0
2014-Dec-17 10:33N 50°49' W 001°06'0 0.0
2014-Dec-17 09:33N 50°49' W 001°06'0 0.0
2014-Dec-17 08:33N 50°49' W 001°06'1 0.6
2014-Dec-17 07:33N 50°49' W 001°07'1413.8
2014-Dec-17 06:33N 50°37' W 000°54'7011.5
2014-Dec-17 00:28N 49°37' W 000°01'1 1.5
2014-Dec-16 23:33N 49°36' W 000°03'5 5.1
2014-Dec-16 22:31N 49°31' E 000°00'5 4.8
2014-Dec-16 21:33N 49°29' E 000°07'0 0.0
2014-Dec-16 20:33N 49°29' E 000°07'0 0.2
2014-Dec-16 19:33N 49°29' E 000°06'0 0.0
2014-Dec-16 18:33N 49°29' E 000°06'0 0.2
2014-Dec-16 17:32N 49°29' E 000°07'0 0.4
2014-Dec-16 16:33N 49°29' E 000°06'7919.8
2014-Dec-16 12:34N 50°38' W 000°55'1312.8
2014-Dec-16 11:33N 50°49' W 001°06'0 0.0
2014-Dec-16 10:33N 50°49' W 001°06'0 0.0
2014-Dec-16 09:33N 50°49' W 001°06'1 1.4
2014-Dec-16 08:33N 50°47' W 001°07'8 8.3
2014-Dec-16 07:34N 50°41' W 000°58'1312.9
2014-Dec-16 06:34N 50°30' W 000°48'6612.4
2014-Dec-16 01:15N 49°32' E 000°00'5 7.2
2014-Dec-16 00:31N 49°29' E 000°07'0 0.4
2014-Dec-15 23:34N 49°29' E 000°06'1918.3
2014-Dec-15 22:33N 49°44' W 000°10'5121.0
2014-Dec-15 20:07N 50°28' W 000°50'1120.5
2014-Dec-15 19:34N 50°39' W 000°56'1211.5
2014-Dec-15 18:33N 50°49' W 001°06'0 0.3
2014-Dec-15 17:33N 50°49' W 001°06'0 0.0
2014-Dec-15 16:33N 50°49' W 001°06'1 1.4
2014-Dec-15 15:33N 50°47' W 001°07'1414.1
2014-Dec-15 14:33N 50°34' W 001°13'17521.9
2014-Dec-15 06:33N 48°41' W 004°40'2020.3
2014-Dec-15 05:33N 48°27' W 005°01'1818.6
2014-Dec-15 04:33N 48°09' W 005°09'2019.8
2014-Dec-15 03:33N 47°49' W 005°06'16 0.5
2014-Dec-13 21:33N 47°54' W 004°42'1818.1
2014-Dec-13 20:33N 48°12' W 004°46'1616.2
2014-Dec-13 19:33N 48°28' W 004°51'2018.2
2014-Dec-13 18:28N 48°45' W 004°37'15320.7
2014-Dec-13 11:04N 50°22' W 001°34'1019.6
2014-Dec-13 10:33N 50°28' W 001°22'1918.7
2014-Dec-13 09:33N 50°40' W 000°59'10 9.6
2014-Dec-13 08:33N 50°49' W 001°06'0 0.0
2014-Dec-13 07:33N 50°49' W 001°06'0 0.0
2014-Dec-13 06:33N 50°49' W 001°06'0 0.0
2014-Dec-13 05:33N 50°49' W 001°06'6 6.0
2014-Dec-13 04:34N 50°43' W 001°01'1313.3
2014-Dec-13 03:33N 50°32' W 000°49'5911.7
2014-Dec-12 22:33N 49°40' W 000°07'1111.4
2014-Dec-12 21:34N 49°30' E 000°01'4 3.8
2014-Dec-12 20:34N 49°29' E 000°07'0 0.0
2014-Dec-12 19:34N 49°29' E 000°07'0 0.0
2014-Dec-12 18:34N 49°29' E 000°07'0 0.0
2014-Dec-12 17:34N 49°29' E 000°07'2 2.1
2014-Dec-12 16:33N 49°29' E 000°04'1717.0
2014-Dec-12 15:34N 49°33' W 000°22'1312.7
2014-Dec-12 14:33N 49°28' W 000°40'2 1.8
2014-Dec-12 13:33N 49°28' W 000°42'3 2.6
2014-Dec-12 12:33N 49°29' W 000°46'  

Dump ship's entire track history